createdAt,value
2019-06-20T00:01:00.636Z,98487.53
2019-06-20T00:03:30.267Z,98489.02
2019-06-20T00:05:59.799Z,98485.55
2019-06-20T00:08:29.313Z,98502.03
2019-06-20T00:10:58.913Z,98494.73
2019-06-20T00:13:28.416Z,98490.66
2019-06-20T00:15:57.953Z,98483.50
2019-06-20T00:18:27.520Z,98484.81
2019-06-20T00:20:57.074Z,98488.18
2019-06-20T00:23:26.587Z,98484.86
2019-06-20T00:25:56.407Z,98491.33
2019-06-20T00:28:25.913Z,98499.56
2019-06-20T00:30:55.444Z,98499.00
2019-06-20T00:33:24.953Z,98503.66
2019-06-20T00:35:54.488Z,98511.52
2019-06-20T00:38:24.015Z,98514.83
2019-06-20T00:40:53.543Z,98509.20
2019-06-20T00:43:23.134Z,98509.84
2019-06-20T00:45:52.687Z,98510.00
2019-06-20T00:48:22.283Z,98490.78
2019-06-20T00:50:51.860Z,98485.95
2019-06-20T00:53:21.385Z,98489.52
2019-06-20T00:55:50.906Z,98497.52
2019-06-20T00:58:20.422Z,98495.09
2019-06-20T01:00:49.967Z,98502.00
2019-06-20T01:03:19.474Z,98504.69
2019-06-20T01:05:49.002Z,98500.69
2019-06-20T01:08:18.592Z,98503.78
2019-06-20T01:10:48.126Z,98505.78
2019-06-20T01:13:32.521Z,98508.22
2019-06-20T01:15:48.908Z,98515.44
2019-06-20T01:18:18.409Z,98522.02
2019-06-20T01:20:47.920Z,98522.48
2019-06-20T01:23:17.450Z,98523.63
2019-06-20T01:25:47.268Z,98522.70
2019-06-20T01:28:17.183Z,98524.17
2019-06-20T01:30:46.690Z,98524.02
2019-06-20T01:33:16.495Z,98527.80
2019-06-20T01:35:47.237Z,98524.70
2019-06-20T01:38:16.911Z,98520.42
2019-06-20T01:40:46.488Z,98512.95
2019-06-20T01:43:16.096Z,98513.03
2019-06-20T01:45:45.671Z,98513.66
2019-06-20T01:48:15.268Z,98502.86
2019-06-20T01:50:44.784Z,98506.15
2019-06-20T01:53:14.312Z,98513.64
2019-06-20T01:55:43.822Z,98510.28
2019-06-20T01:58:13.356Z,98508.03
2019-06-20T02:00:50.949Z,98502.53
2019-06-20T02:03:21.151Z,98509.83
2019-06-20T02:05:50.799Z,98511.92
2019-06-20T02:08:20.574Z,98528.02
2019-06-20T02:10:50.086Z,98534.30
2019-06-20T02:13:19.618Z,98538.98
2019-06-20T02:15:49.129Z,98557.90
2019-06-20T02:18:18.736Z,98570.05
2019-06-20T02:20:57.735Z,98562.00
2019-06-20T02:23:27.333Z,98565.47
2019-06-20T02:25:56.904Z,98573.31
2019-06-20T02:28:26.442Z,98554.06
2019-06-20T02:30:56.016Z,98524.70
2019-06-20T02:33:25.571Z,98517.84
2019-06-20T02:35:55.078Z,98520.13
2019-06-20T02:38:24.623Z,98525.80
2019-06-20T02:40:54.131Z,98514.65
2019-06-20T02:43:24.396Z,98522.34
2019-06-20T02:45:54.080Z,98521.02
2019-06-20T02:48:23.898Z,98511.33
2019-06-20T02:50:53.415Z,98505.66
2019-06-20T02:53:22.995Z,98514.02
2019-06-20T02:55:52.568Z,98514.77
2019-06-20T02:58:22.242Z,98525.32
2019-06-20T03:00:59.384Z,98531.16
2019-06-20T03:03:30.157Z,98526.67
2019-06-20T03:05:59.733Z,98529.33
2019-06-20T03:08:30.006Z,98527.53
2019-06-20T03:10:59.739Z,98534.09
2019-06-20T03:13:29.411Z,98535.41
2019-06-20T03:15:58.918Z,98531.42
2019-06-20T03:18:28.519Z,98539.38
2019-06-20T03:20:58.175Z,98547.74
2019-06-20T03:23:27.877Z,98547.36
2019-06-20T03:25:57.382Z,98545.95
2019-06-20T03:28:26.914Z,98553.31
2019-06-20T03:30:56.435Z,98560.45
2019-06-20T03:33:25.967Z,98565.77
2019-06-20T03:35:56.242Z,98561.13
2019-06-20T03:38:25.770Z,98576.61
2019-06-20T03:40:55.283Z,98576.44
2019-06-20T03:43:24.818Z,98573.58
2019-06-20T03:45:54.320Z,98573.28
2019-06-20T03:48:24.145Z,98577.67
2019-06-20T03:50:53.722Z,98584.94
2019-06-20T03:53:23.592Z,98596.55
2019-06-20T03:55:53.092Z,98605.83
2019-06-20T03:58:22.626Z,98617.05
2019-06-20T04:00:52.128Z,98622.85
2019-06-20T04:03:21.929Z,98626.98
2019-06-20T04:05:51.447Z,98646.70
2019-06-20T04:08:20.976Z,98661.72
2019-06-20T04:10:50.486Z,98691.83
2019-06-20T04:13:20.023Z,98709.80
2019-06-20T04:15:49.528Z,98722.59
2019-06-20T04:18:19.068Z,98716.05
2019-06-20T04:20:48.563Z,98707.02
2019-06-20T04:23:18.100Z,98693.33
2019-06-20T04:25:47.608Z,98695.67
2019-06-20T04:28:17.219Z,98695.97
2019-06-20T04:30:46.785Z,98677.02
2019-06-20T04:33:16.324Z,98667.19
2019-06-20T04:35:45.833Z,98657.06
2019-06-20T04:38:15.345Z,98653.28
2019-06-20T04:40:44.877Z,98640.34
2019-06-20T04:43:14.379Z,98626.95
2019-06-20T04:45:48.020Z,98604.81
2019-06-20T04:48:17.522Z,98602.66
2019-06-20T04:50:47.125Z,98598.34
2019-06-20T04:53:16.637Z,98587.50
2019-06-20T04:55:46.168Z,98596.22
2019-06-20T04:58:15.677Z,98595.91
2019-06-20T05:00:45.206Z,98587.66
2019-06-20T05:03:14.731Z,98563.20
2019-06-20T05:05:44.253Z,98552.64
2019-06-20T05:08:13.760Z,98580.07
2019-06-20T05:10:43.297Z,98590.98
2019-06-20T05:13:12.797Z,98589.53
2019-06-20T05:15:52.235Z,98581.27
2019-06-20T05:18:13.562Z,98587.84
2019-06-20T05:20:43.099Z,98578.25
2019-06-20T05:23:12.606Z,98597.95
2019-06-20T05:25:42.139Z,98598.34
2019-06-20T05:28:11.672Z,98586.88
2019-06-20T05:30:41.252Z,98587.58
2019-06-20T05:33:11.035Z,98592.83
2019-06-20T05:35:41.331Z,98601.06
2019-06-20T05:38:10.833Z,98591.25
2019-06-20T05:40:40.363Z,98589.52
2019-06-20T05:43:10.177Z,98586.70
2019-06-20T05:45:39.825Z,98590.52
2019-06-20T05:48:09.358Z,98590.41
2019-06-20T05:50:40.285Z,98591.77
2019-06-20T05:53:10.690Z,98591.24
2019-06-20T05:55:40.374Z,98589.16
2019-06-20T05:58:09.883Z,98598.83
2019-06-20T06:00:39.513Z,98594.55
2019-06-20T06:03:09.070Z,98583.13
2019-06-20T06:05:38.609Z,98581.48
2019-06-20T06:08:08.189Z,98587.64
2019-06-20T06:10:37.851Z,98584.11
2019-06-20T06:13:07.449Z,98580.59
2019-06-20T06:15:36.983Z,98583.83
2019-06-20T06:18:08.270Z,98585.50
2019-06-20T06:20:37.808Z,98585.84
2019-06-20T06:23:07.315Z,98585.22
2019-06-20T06:25:36.855Z,98596.06
2019-06-20T06:28:06.460Z,98599.09
2019-06-20T06:30:36.114Z,98598.73
2019-06-20T06:33:06.608Z,98593.38
2019-06-20T06:35:36.138Z,98595.20
2019-06-20T06:38:05.719Z,98597.25
2019-06-20T06:40:35.386Z,98587.28
2019-06-20T06:43:04.967Z,98588.05
2019-06-20T06:45:34.498Z,98586.08
2019-06-20T06:48:04.134Z,98591.86
2019-06-20T06:50:33.798Z,98594.69
2019-06-20T06:53:03.373Z,98593.51
2019-06-20T06:55:32.976Z,98595.67
2019-06-20T06:58:02.497Z,98601.19
2019-06-20T07:00:32.088Z,98601.00
2019-06-20T07:03:01.595Z,98602.10
2019-06-20T07:05:31.561Z,98603.12
2019-06-20T07:08:01.137Z,98602.55
2019-06-20T07:10:30.807Z,98604.92
2019-06-20T07:13:00.442Z,98606.64
2019-06-20T07:15:30.257Z,98608.72
2019-06-20T07:17:59.762Z,98610.62
2019-06-20T07:20:29.324Z,98612.01
2019-06-20T07:22:58.838Z,98617.34
2019-06-20T07:25:28.427Z,98616.02
2019-06-20T07:27:57.953Z,98615.52
2019-06-20T07:30:27.845Z,98612.55
2019-06-20T07:32:57.755Z,98614.81
2019-06-20T07:35:27.257Z,98617.77
2019-06-20T07:37:56.937Z,98617.84
2019-06-20T07:40:26.440Z,98618.29
2019-06-20T07:42:55.962Z,98601.45
2019-06-20T07:45:27.727Z,98631.88
2019-06-20T07:47:57.412Z,98632.50
2019-06-20T07:50:27.057Z,98633.91
2019-06-20T07:53:02.104Z,98637.49
2019-06-20T07:55:27.837Z,98638.95
2019-06-20T07:57:57.358Z,98636.67
2019-06-20T08:00:27.197Z,98626.53
2019-06-20T08:02:56.812Z,98633.09
2019-06-20T08:05:26.394Z,98632.59
2019-06-20T08:07:55.923Z,98632.23
2019-06-20T08:10:26.143Z,98633.34
2019-06-20T08:12:55.679Z,98630.34
2019-06-20T08:15:25.638Z,98632.20
2019-06-20T08:17:55.188Z,98626.18
2019-06-20T08:20:25.089Z,98636.00
2019-06-20T08:22:54.696Z,98635.45
2019-06-20T08:25:24.419Z,98639.22
2019-06-20T08:27:54.124Z,98634.80
2019-06-20T08:30:29.715Z,98645.09
2019-06-20T08:33:01.665Z,98637.75
2019-06-20T08:35:32.053Z,98640.44
2019-06-20T08:38:03.660Z,98640.48
2019-06-20T08:40:38.296Z,98646.86
2019-06-20T08:43:08.020Z,98643.75
2019-06-20T08:45:40.116Z,98641.46
2019-06-20T08:48:09.880Z,98644.40
2019-06-20T08:50:40.502Z,98637.48
2019-06-20T08:53:10.180Z,98629.77
2019-06-20T08:55:39.753Z,98636.95
2019-06-20T08:58:09.298Z,98629.28
2019-06-20T09:00:39.544Z,98627.03
2019-06-20T09:03:09.148Z,98625.12
2019-06-20T09:05:38.998Z,98629.63
2019-06-20T09:08:11.367Z,98624.09
2019-06-20T09:10:42.260Z,98629.89
2019-06-20T09:13:13.432Z,98624.52
2019-06-20T09:15:45.091Z,98629.48
2019-06-20T09:18:14.623Z,98631.00
2019-06-20T09:20:44.196Z,98631.79
2019-06-20T09:23:14.053Z,98637.48
2019-06-20T09:25:43.633Z,98638.82
2019-06-20T09:28:13.234Z,98636.91
2019-06-20T09:30:43.590Z,98640.03
2019-06-20T09:33:13.213Z,98643.56
2019-06-20T09:35:42.723Z,98638.45
2019-06-20T09:38:12.538Z,98636.17
2019-06-20T09:40:42.056Z,98640.03
2019-06-20T09:43:26.567Z,98640.84
2019-06-20T09:45:43.162Z,98636.81
2019-06-20T09:48:12.700Z,98639.45
2019-06-20T09:50:42.196Z,98637.34
2019-06-20T09:53:11.732Z,98632.80
2019-06-20T09:55:41.259Z,98629.54
2019-06-20T09:58:10.867Z,98634.86
2019-06-20T10:00:40.532Z,98628.63
2019-06-20T10:03:10.052Z,98625.11
2019-06-20T10:05:39.702Z,98621.77
2019-06-20T10:08:09.234Z,98622.41
2019-06-20T10:10:38.824Z,98623.00
2019-06-20T10:13:08.430Z,98616.97
2019-06-20T10:15:38.982Z,98616.81
2019-06-20T10:18:09.268Z,98620.28
2019-06-20T10:20:39.360Z,98624.83
2019-06-20T10:23:09.133Z,98628.83
2019-06-20T10:25:39.175Z,98630.95
2019-06-20T10:28:09.057Z,98623.06
2019-06-20T10:30:38.576Z,98617.30
2019-06-20T10:33:08.265Z,98623.31
2019-06-20T10:35:37.773Z,98617.77
2019-06-20T10:38:08.963Z,98609.71
2019-06-20T10:40:38.915Z,98609.75
2019-06-20T10:43:08.584Z,98608.13
2019-06-20T10:45:39.530Z,98601.84
2019-06-20T10:48:09.180Z,98599.58
2019-06-20T10:50:38.859Z,98593.47
2019-06-20T10:53:08.504Z,98589.16
2019-06-20T10:55:38.174Z,98585.75
2019-06-20T10:58:09.328Z,98591.84
2019-06-20T11:00:40.018Z,98587.94
2019-06-20T11:03:10.230Z,98580.30
2019-06-20T11:05:40.903Z,98579.80
2019-06-20T11:08:11.079Z,98581.95
2019-06-20T11:10:42.233Z,98596.05
2019-06-20T11:13:12.064Z,98581.48
2019-06-20T11:15:42.206Z,98590.75
2019-06-20T11:18:11.867Z,98591.40
2019-06-20T11:20:42.652Z,98586.75
2019-06-20T11:23:12.295Z,98583.94
2019-06-20T11:25:42.027Z,98575.66
2019-06-20T11:28:11.686Z,98579.63
2019-06-20T11:30:52.966Z,98578.31
2019-06-20T11:33:13.214Z,98580.63
2019-06-20T11:35:43.455Z,98573.02
2019-06-20T11:38:13.050Z,98576.47
2019-06-20T11:40:43.931Z,98579.47
2019-06-20T11:43:13.520Z,98573.80
2019-06-20T11:45:43.229Z,98578.13
2019-06-20T11:48:12.816Z,98574.50
2019-06-20T11:50:42.469Z,98577.64
2019-06-20T11:53:13.006Z,98581.27
2019-06-20T11:55:43.231Z,98575.82
2019-06-20T11:58:12.740Z,98586.73
2019-06-20T12:01:03.798Z,98595.36
2019-06-20T12:03:33.039Z,98495.20
2019-06-20T12:06:03.368Z,98592.23
2019-06-20T12:08:32.884Z,98588.09
2019-06-20T12:11:02.477Z,98588.25
2019-06-20T12:13:31.973Z,98595.36
2019-06-20T12:16:01.507Z,98589.44
2019-06-20T12:18:31.021Z,98591.22
2019-06-20T12:21:00.867Z,98594.06
2019-06-20T12:23:30.371Z,98597.69
2019-06-20T12:25:59.916Z,98593.73
2019-06-20T12:28:29.514Z,98595.36
2019-06-20T12:33:27.785Z,98597.48
2019-06-20T12:35:57.324Z,98593.65
2019-06-20T12:38:26.829Z,98597.31
2019-06-20T12:40:56.367Z,98590.03
2019-06-20T12:43:25.879Z,98590.37
2019-06-20T12:45:55.420Z,98585.22
2019-06-20T12:48:24.928Z,98587.71
2019-06-20T12:50:54.473Z,98581.44
2019-06-20T12:53:23.993Z,98583.74
2019-06-20T12:55:53.549Z,98583.41
2019-06-20T12:58:23.138Z,98565.67
2019-06-20T13:00:52.670Z,98578.73
2019-06-20T13:03:22.174Z,98575.09
2019-06-20T13:05:51.826Z,98580.38
2019-06-20T13:08:21.464Z,98573.28
2019-06-20T13:10:51.353Z,98572.77
2019-06-20T13:13:20.861Z,98574.42
2019-06-20T13:15:50.667Z,98569.78
2019-06-20T13:18:20.212Z,98572.11
2019-06-20T13:20:49.793Z,98581.02
2019-06-20T13:23:19.297Z,98578.38
2019-06-20T13:25:48.968Z,98581.38
2019-06-20T13:28:18.533Z,98580.38
2019-06-20T13:30:51.948Z,98585.82
2019-06-20T13:33:19.869Z,98586.78
2019-06-20T13:35:50.805Z,98591.43
2019-06-20T13:38:20.488Z,98600.86
2019-06-20T13:40:50.014Z,98601.84
2019-06-20T13:43:19.600Z,98600.22
2019-06-20T13:45:49.855Z,98603.20
2019-06-20T13:48:19.592Z,98595.05
2019-06-20T13:50:49.674Z,98600.81
2019-06-20T13:53:19.483Z,98593.48
2019-06-20T13:55:50.344Z,98592.17
2019-06-20T13:58:19.999Z,98591.82
2019-06-20T14:00:50.944Z,98589.17
2019-06-20T14:03:20.773Z,98586.05
2019-06-20T14:05:51.712Z,98586.05
2019-06-20T14:08:21.380Z,98584.78
2019-06-20T14:10:52.300Z,98577.36
2019-06-20T14:13:21.937Z,98589.90
2019-06-20T14:15:51.473Z,98586.96
2019-06-20T14:18:20.978Z,98578.22
2019-06-20T14:20:50.841Z,98578.89
2019-06-20T14:23:20.508Z,98581.23
2019-06-20T14:25:51.516Z,98577.28
2019-06-20T14:28:21.400Z,98579.42
2019-06-20T14:30:50.960Z,98579.58
2019-06-20T14:33:20.517Z,98583.39
2019-06-20T14:35:51.178Z,98580.41
2019-06-20T14:38:20.744Z,98574.16
2019-06-20T14:40:50.251Z,98575.20
2019-06-20T14:43:19.846Z,98574.00
2019-06-20T14:45:50.662Z,98571.05
2019-06-20T14:48:21.049Z,98558.14
2019-06-20T14:50:51.406Z,98569.70
2019-06-20T14:53:21.098Z,98564.30
2019-06-20T14:55:51.745Z,98563.30
2019-06-20T14:58:21.335Z,98566.27
2019-06-20T15:00:52.126Z,98567.27
2019-06-20T15:03:22.096Z,98558.02
2019-06-20T15:05:52.589Z,98560.17
2019-06-20T15:08:22.233Z,98555.36
2019-06-20T15:10:51.976Z,98553.72
2019-06-20T15:13:21.578Z,98552.22
2019-06-20T15:15:51.334Z,98550.23
2019-06-20T15:18:20.967Z,98545.78
2019-06-20T15:20:51.865Z,98548.93
2019-06-20T15:23:22.225Z,98549.41
2019-06-20T15:25:52.158Z,98542.16
2019-06-20T15:28:22.065Z,98543.95
2019-06-20T15:30:52.693Z,98546.28
2019-06-20T15:33:22.389Z,98544.95
2019-06-20T15:35:53.399Z,98542.28
2019-06-20T15:38:23.206Z,98539.00
2019-06-20T15:40:53.442Z,98542.48
2019-06-20T15:43:23.158Z,98535.86
2019-06-20T15:45:53.912Z,98538.84
2019-06-20T15:48:23.550Z,98528.75
2019-06-20T15:50:53.062Z,98530.91
2019-06-20T15:53:22.599Z,98527.60
2019-06-20T15:55:52.260Z,98527.11
2019-06-20T15:58:21.888Z,98526.95
2019-06-20T16:00:52.500Z,98533.20
2019-06-20T16:03:22.348Z,98531.06
2019-06-20T16:05:51.953Z,98534.22
2019-06-20T16:08:21.480Z,98539.16
2019-06-20T16:10:51.317Z,98532.55
2019-06-20T16:13:20.938Z,98538.50
2019-06-20T16:15:51.173Z,98535.85
2019-06-20T16:18:21.699Z,98526.59
2019-06-20T16:20:51.219Z,98532.55
2019-06-20T16:23:20.762Z,98529.10
2019-06-20T16:25:50.268Z,98536.87
2019-06-20T16:28:19.903Z,98541.81
2019-06-20T16:30:49.765Z,98532.88
2019-06-20T16:33:25.040Z,98531.39
2019-06-20T16:35:50.846Z,98535.02
2019-06-20T16:38:20.375Z,98540.50
2019-06-20T16:40:50.234Z,98542.64
2019-06-20T16:43:19.777Z,98536.03
2019-06-20T16:45:49.297Z,98539.33
2019-06-20T16:48:19.091Z,98551.73
2019-06-20T16:50:48.637Z,98552.08
2019-06-20T16:53:18.179Z,98548.44
2019-06-20T16:55:47.775Z,98546.61
2019-06-20T16:58:17.443Z,98555.36
2019-06-20T17:00:47.020Z,98558.82
2019-06-20T17:03:16.554Z,98564.28
2019-06-20T17:05:46.436Z,98572.88
2019-06-20T17:08:15.995Z,98580.00
2019-06-20T17:10:45.651Z,98585.77
2019-06-20T17:13:15.176Z,98582.47
2019-06-20T17:15:44.691Z,98599.00
2019-06-20T17:18:14.219Z,98594.70
2019-06-20T17:20:43.931Z,98601.00
2019-06-20T17:23:13.466Z,98601.17
2019-06-20T17:25:43.071Z,98599.16
2019-06-20T17:28:12.736Z,98595.88
2019-06-20T17:30:42.403Z,98607.95
2019-06-20T17:33:11.910Z,98600.50
2019-06-20T17:35:41.535Z,98596.36
2019-06-20T17:38:11.046Z,98596.20
2019-06-20T17:40:40.713Z,98600.33
2019-06-20T17:43:10.315Z,98602.96
2019-06-20T17:45:39.863Z,98599.33
2019-06-20T17:48:09.453Z,98607.42
2019-06-20T17:50:39.124Z,98614.53
2019-06-20T17:53:08.966Z,98615.82
2019-06-20T17:55:38.576Z,98614.16
2019-06-20T17:58:08.087Z,98614.50
2019-06-20T18:00:38.045Z,98625.07
2019-06-20T18:03:07.618Z,98624.05
2019-06-20T18:05:37.201Z,98627.38
2019-06-20T18:08:15.102Z,98630.67
2019-06-20T18:10:38.064Z,98628.02
2019-06-20T18:13:07.578Z,98632.62
2019-06-20T18:15:37.114Z,98629.64
2019-06-20T18:18:06.765Z,98624.84
2019-06-20T18:20:36.301Z,98634.43
2019-06-20T18:23:05.807Z,98637.37
2019-06-20T18:25:35.337Z,98639.20
2019-06-20T18:28:05.157Z,98643.98
2019-06-20T18:30:45.773Z,98641.80
2019-06-20T18:33:15.493Z,98643.45
2019-06-20T18:35:45.032Z,98652.02
2019-06-20T18:38:14.550Z,98652.70
2019-06-20T18:40:44.152Z,98659.11
2019-06-20T18:43:14.228Z,98657.95
2019-06-20T18:45:44.204Z,98660.41
2019-06-20T18:48:13.730Z,98657.94
2019-06-20T18:50:43.413Z,98661.34
2019-06-20T18:53:12.927Z,98668.11
2019-06-20T18:55:42.536Z,98669.63
2019-06-20T18:58:12.051Z,98668.66
2019-06-20T19:00:41.673Z,98678.25
2019-06-20T19:03:11.317Z,98676.09
2019-06-20T19:05:40.855Z,98676.61
2019-06-20T19:08:10.371Z,98686.31
2019-06-20T19:10:39.906Z,98682.05
2019-06-20T19:13:12.807Z,98684.21
2019-06-20T19:15:40.735Z,98694.94
2019-06-20T19:18:10.248Z,98699.22
2019-06-20T19:20:40.202Z,98700.45
2019-06-20T19:23:09.710Z,98703.09
2019-06-20T19:25:39.313Z,98702.73
2019-06-20T19:28:11.029Z,98705.63
2019-06-20T19:30:53.202Z,98706.66
2019-06-20T19:33:22.784Z,98704.70
2019-06-20T19:35:52.331Z,98706.18
2019-06-20T19:38:21.840Z,98715.58
2019-06-20T19:40:53.454Z,98723.10
2019-06-20T19:43:22.986Z,98725.98
2019-06-20T19:45:52.545Z,98737.34
2019-06-20T19:48:22.131Z,98741.09
2019-06-20T19:50:51.742Z,98743.30
2019-06-20T19:53:21.254Z,98748.17
2019-06-20T19:55:50.854Z,98751.11
2019-06-20T19:58:20.371Z,98749.53
2019-06-20T20:00:50.201Z,98744.47
2019-06-20T20:03:19.836Z,98748.16
2019-06-20T20:05:49.440Z,98752.03
2019-06-20T20:08:19.613Z,98750.97
2019-06-20T20:10:50.437Z,98759.52
2019-06-20T20:13:20.420Z,98755.67
2019-06-20T20:15:50.029Z,98760.14
2019-06-20T20:18:19.607Z,98764.55
2019-06-20T20:20:49.382Z,98771.92
2019-06-20T20:23:19.028Z,98775.02
2019-06-20T20:25:48.873Z,98769.45
2019-06-20T20:28:18.418Z,98778.11
2019-06-20T20:30:48.001Z,98788.70
2019-06-20T20:33:17.532Z,98805.69
2019-06-20T20:35:47.035Z,98808.07
2019-06-20T20:38:16.577Z,98816.55
2019-06-20T20:40:46.154Z,98817.28
2019-06-20T20:43:15.686Z,98815.81
2019-06-20T20:45:45.337Z,98803.95
2019-06-20T20:48:14.869Z,98807.11
2019-06-20T20:50:44.818Z,98819.74
2019-06-20T20:53:14.356Z,98830.81
2019-06-20T20:55:43.928Z,98827.95
2019-06-20T20:58:13.575Z,98838.09
2019-06-20T21:00:50.537Z,98841.87
2019-06-20T21:03:20.078Z,98843.22
2019-06-20T21:05:51.711Z,98843.63
2019-06-20T21:08:20.839Z,98843.63
2019-06-20T21:10:50.608Z,98837.13
2019-06-20T21:13:20.148Z,98834.25
2019-06-20T21:15:49.649Z,98846.45
2019-06-20T21:18:19.249Z,98847.29
2019-06-20T21:20:48.848Z,98854.48
2019-06-20T21:23:18.352Z,98857.33
2019-06-20T21:25:47.860Z,98858.83
2019-06-20T21:28:17.470Z,98863.19
2019-06-20T21:30:47.112Z,98868.56
2019-06-20T21:33:16.650Z,98870.91
2019-06-20T21:35:46.236Z,98869.52
2019-06-20T21:38:15.770Z,98872.03
2019-06-20T21:40:45.281Z,98873.59
2019-06-20T21:43:14.819Z,98886.13
2019-06-20T21:45:44.795Z,98888.62
2019-06-20T21:48:14.326Z,98893.73
2019-06-20T21:50:44.504Z,98889.79
2019-06-20T21:53:14.112Z,98897.55
2019-06-20T21:55:43.616Z,98887.48
2019-06-20T21:58:13.147Z,98886.51
2019-06-20T22:00:46.707Z,98881.62
2019-06-20T22:03:16.477Z,98879.61
2019-06-20T22:05:46.058Z,98883.30
2019-06-20T22:08:15.732Z,98892.27
2019-06-20T22:10:45.312Z,98900.08
2019-06-20T22:13:14.851Z,98897.81
2019-06-20T22:15:44.357Z,98906.47
2019-06-20T22:18:13.890Z,98903.64
2019-06-20T22:20:43.390Z,98898.86
2019-06-20T22:23:12.990Z,98907.08
2019-06-20T22:25:42.641Z,98911.67
2019-06-20T22:28:12.383Z,98912.84
2019-06-20T22:30:51.798Z,98909.38
2019-06-20T22:33:21.769Z,98914.16
2019-06-20T22:35:51.521Z,98910.78
2019-06-20T22:38:21.057Z,98903.14
2019-06-20T22:40:50.758Z,98904.82
2019-06-20T22:43:20.335Z,98903.69
2019-06-20T22:45:49.845Z,98899.45
2019-06-20T22:48:19.521Z,98903.17
2019-06-20T22:50:49.022Z,98899.91
2019-06-20T22:53:18.558Z,98901.97
2019-06-20T22:55:48.073Z,98897.15
2019-06-20T22:58:17.602Z,98899.55
2019-06-20T23:00:47.243Z,98903.35
2019-06-20T23:03:17.127Z,98901.00
2019-06-20T23:05:46.637Z,98905.31
2019-06-20T23:08:16.240Z,98909.16
2019-06-20T23:10:45.764Z,98920.58
2019-06-20T23:13:15.367Z,98916.95
2019-06-20T23:15:44.884Z,98923.45
2019-06-20T23:18:14.771Z,98924.41
2019-06-20T23:21:00.657Z,98929.09
2019-06-20T23:23:15.519Z,98930.06
2019-06-20T23:25:46.696Z,98933.70
2019-06-20T23:28:16.213Z,98932.52
2019-06-20T23:30:45.741Z,98935.66
2019-06-20T23:33:15.255Z,98939.36
2019-06-20T23:35:44.808Z,98928.14
2019-06-20T23:38:14.323Z,98929.73
2019-06-20T23:40:44.028Z,98930.84
2019-06-20T23:43:13.536Z,98937.06
2019-06-20T23:45:43.147Z,98930.09
2019-06-20T23:48:12.649Z,98926.70
2019-06-20T23:50:42.617Z,98935.95
2019-06-20T23:53:13.785Z,98930.67
2019-06-20T23:55:43.386Z,98928.91
2019-06-20T23:58:12.893Z,98926.02
